Time;durP1;ratioP1;P1;durP2;ratioP2;P2;SDS_P1;SDS_P2;PMS_P1;PMS_P2;Temp;Humidity;BMP_temperature;BMP_pressure;BME280_temperature;BME280_humidity;BME280_pressure;Samples;Min_cycle;Max_cycle;Signal;HPM_P1;HPM_P2
2023/01/24 00:02:28;;;;;;;;;;;;;;;;;;5008931;28;19909;-90
2023/01/24 00:05:14;;;;;;;;;;;;;;;;;;5014901;28;19920;-90
2023/01/24 00:08:00;;;;;;;;;;;;;;;;;;5011494;28;19921;-89
2023/01/24 00:10:47;;;;;;;;;;;;;;;;;;5006028;28;19944;-88
2023/01/24 00:13:33;;;;;;;;;;;;;;;;;;5008919;28;19920;-91
2023/01/24 00:16:20;;;;;;;;;;;;;;;;;;5013641;28;19913;-92
2023/01/24 00:19:06;;;;;;;;;;;;;;;;;;5010115;28;20478;-91
2023/01/24 00:21:53;;;;;;;;;;;;;;;;;;5019235;28;19913;-90
2023/01/24 00:24:39;;;;;;;;;;;;;;;;;;5009838;28;19913;-89
2023/01/24 00:27:26;;;;;;;;;;;;;;;;;;5008828;28;20606;-90
2023/01/24 00:30:12;;;;;;;;;;;;;;;;;;5007534;28;20683;-90
2023/01/24 00:32:59;;;;;;;;;;;;;;;;;;5009578;28;19914;-90
2023/01/24 00:35:45;;;;;;;;;;;;;;;;;;5015886;28;19921;-93
2023/01/24 00:38:32;;;;;;;;;;;;;;;;;;5005648;28;19924;-91
2023/01/24 00:41:18;;;;;;;;;;;;;;;;;;5014874;28;19913;-93
2023/01/24 00:44:05;;;;;;;;;;;;;;;;;;4995368;28;19918;-92
2023/01/24 00:46:51;;;;;;;;;;;;;;;;;;5007566;28;19918;-92
2023/01/24 00:49:38;;;;;;;;;;;;;;;;;;4999756;28;19918;-90
2023/01/24 00:52:24;;;;;;;;;;;;;;;;;;4997250;28;19924;-90
2023/01/24 00:55:10;;;;;;;;;;;;;;;;;;5029751;28;19939;-90
2023/01/24 00:57:57;;;;;;;;;;;;;;;;;;5031308;28;19914;-92
2023/01/24 01:00:43;;;;;;;;;;;;;;;;;;5036992;28;19940;-91
2023/01/24 01:03:30;;;;;;;;;;;;;;;;;;5034620;28;19916;-90
2023/01/24 01:06:16;;;;;;;;;;;;;;;;;;5033448;28;19920;-92
2023/01/24 01:09:03;;;;;;;;;;;;;;;;;;5019303;28;19921;-90
2023/01/24 01:11:49;;;;;;;;;;;;;;;;;;5037771;28;19916;-91
2023/01/24 01:14:36;;;;;;;;;;;;;;;;;;5032806;28;19909;-90
2023/01/24 01:17:22;;;;;;;;;;;;;;;;;;5035299;28;20591;-86
2023/01/24 01:20:09;;;;;;;;;;;;;;;;;;5042049;28;19916;-83
2023/01/24 01:22:55;;;;;;;;;;;;;;;;;;5032540;28;19924;-84
2023/01/24 01:25:41;;;;;;;;;;;;;;;;;;5026602;28;19913;-84
2023/01/24 01:28:28;;;;;;;;;;;;;;;;;;5036089;28;19925;-83
2023/01/24 01:31:14;;;;;;;;;;;;;;;;;;5028536;28;19917;-82
2023/01/24 01:34:01;;;;;;;;;;;;;;;;;;5015898;28;20929;-85
2023/01/24 01:36:47;;;;;;;;;;;;;;;;;;5019493;28;19924;-85
2023/01/24 01:39:34;;;;;;;;;;;;;;;;;;5027960;28;19917;-86
2023/01/24 01:42:20;;;;;;;;;;;;;;;;;;5026294;28;19917;-86
2023/01/24 01:45:07;;;;;;;;;;;;;;;;;;5037361;28;20407;-86
2023/01/24 01:47:53;;;;;;;;;;;;;;;;;;5030299;28;19951;-87
2023/01/24 01:50:40;;;;;;;;;;;;;;;;;;5028188;28;20302;-86
2023/01/24 01:53:26;;;;;;;;;;;;;;;;;;5017769;28;19931;-87
2023/01/24 01:56:13;;;;;;;;;;;;;;;;;;5031731;28;20407;-87
2023/01/24 01:58:59;;;;;;;;;;;;;;;;;;5028073;28;19921;-86
2023/01/24 02:01:45;;;;;;;;;;;;;;;;;;5025183;28;20296;-87
2023/01/24 02:04:32;;;;;;;;;;;;;;;;;;5011996;28;19920;-87
2023/01/24 02:07:20;;;;;;;;;;;;;;;;;;5045913;28;20328;-88
2023/01/24 02:10:06;;;;;;;;;;;;;;;;;;5015465;28;19921;-88
2023/01/24 02:12:52;;;;;;;;;;;;;;;;;;5032739;28;20010;-89
2023/01/24 02:18:44;;;;;;;;;;;;;;;;;;5020821;28;20419;-88
2023/01/24 02:21:31;;;;;;;;;;;;;;;;;;5026571;28;19924;-88
2023/01/24 02:24:17;;;;;;;;;;;;;;;;;;5030906;28;20304;-89
2023/01/24 02:27:04;;;;;;;;;;;;;;;;;;5025544;28;19916;-88
2023/01/24 02:29:50;;;;;;;;;;;;;;;;;;5021824;28;19928;-87
2023/01/24 02:32:37;;;;;;;;;;;;;;;;;;5031731;28;20606;-86
2023/01/24 02:35:24;;;;;;;;;;;;;;;;;;5026368;28;19909;-86
2023/01/24 02:38:10;;;;;;;;;;;;;;;;;;5027576;28;19913;-86
2023/01/24 02:41:04;;;;;;;;;;;;;;;;;;5030473;28;19932;-86
2023/01/24 02:43:51;;;;;;;;;;;;;;;;;;5025041;28;19917;-86
2023/01/24 02:46:37;;;;;;;;;;;;;;;;;;5017944;28;20352;-86
2023/01/24 02:49:24;;;;;;;;;;;;;;;;;;5016775;28;19918;-86
2023/01/24 02:55:15;;;;;;;;;;;;;;;;;;5019960;28;19925;-87
2023/01/24 02:58:08;;;;;;;;;;;;;;;;;;5024040;28;20282;-87
2023/01/24 03:00:55;;;;;;;;;;;;;;;;;;5025291;28;19913;-88
2023/01/24 03:03:42;;;;;;;;;;;;;;;;;;5027956;28;19920;-88
2023/01/24 03:06:29;;;;;;;;;;;;;;;;;;5025658;28;19922;-87
2023/01/24 03:09:18;;;;;;;;;;;;;;;;;;5023814;28;19947;-88
2023/01/24 03:36:49;;;;;;;;;;;;;;;;;;5024641;28;19925;-87
2023/01/24 03:39:58;;;;;;;;;;;;;;;;;;5026377;28;20394;-87
2023/01/24 03:42:50;;;;;;;;;;;;;;;;;;5030124;28;19920;-87
2023/01/24 03:45:37;;;;;;;;;;;;;;;;;;5034433;28;19913;-87
2023/01/24 03:48:26;;;;;;;;;;;;;;;;;;5029118;28;19921;-87
2023/01/24 03:54:17;;;;;;;;;;;;;;;;;;5019388;28;19925;-88
2023/01/24 03:57:04;;;;;;;;;;;;;;;;;;5013223;28;19909;-87
2023/01/24 03:59:50;;;;;;;;;;;;;;;;;;5027763;28;20556;-88
2023/01/24 04:02:37;;;;;;;;;;;;;;;;;;5036218;28;19918;-88
2023/01/24 04:05:23;;;;;;;;;;;;;;;;;;5016842;28;20250;-89
2023/01/24 04:08:10;;;;;;;;;;;;;;;;;;5013709;28;19919;-89
2023/01/24 04:10:56;;;;;;;;;;;;;;;;;;5018261;28;19921;-88
2023/01/24 04:13:43;;;;;;;;;;;;;;;;;;5014014;28;19917;-89
2023/01/24 04:16:29;;;;;;;;;;;;;;;;;;5021086;28;19921;-88
2023/01/24 04:19:16;;;;;;;;;;;;;;;;;;5015157;28;19913;-89
2023/01/24 04:22:02;;;;;;;;;;;;;;;;;;5016223;28;19925;-88
2023/01/24 04:24:48;;;;;;;;;;;;;;;;;;5018325;28;19917;-88
2023/01/24 04:27:35;;;;;;;;;;;;;;;;;;5035744;28;19913;-89
2023/01/24 04:30:21;;;;;;;;;;;;;;;;;;5015888;28;19929;-86
2023/01/24 04:33:08;;;;;;;;;;;;;;;;;;5010707;28;19924;-86
2023/01/24 04:35:54;;;;;;;;;;;;;;;;;;5033934;28;19913;-86
2023/01/24 04:38:41;;;;;;;;;;;;;;;;;;5028942;28;19920;-88
2023/01/24 04:41:27;;;;;;;;;;;;;;;;;;5026751;28;19921;-87
2023/01/24 04:44:14;;;;;;;;;;;;;;;;;;5022791;28;20394;-88
2023/01/24 04:47:00;;;;;;;;;;;;;;;;;;5029806;28;19913;-88
2023/01/24 04:49:47;;;;;;;;;;;;;;;;;;5025972;28;19928;-88
2023/01/24 04:52:33;;;;;;;;;;;;;;;;;;5038020;28;19913;-88
2023/01/24 04:55:20;;;;;;;;;;;;;;;;;;5034207;28;19913;-88
2023/01/24 04:58:06;;;;;;;;;;;;;;;;;;5036157;28;19912;-88
2023/01/24 05:00:53;;;;;;;;;;;;;;;;;;5025884;28;19913;-88
2023/01/24 05:03:39;;;;;;;;;;;;;;;;;;5026383;28;20229;-88
2023/01/24 05:06:26;;;;;;;;;;;;;;;;;;5020565;28;19917;-88
2023/01/24 05:09:12;;;;;;;;;;;;;;;;;;5016137;28;19936;-81
2023/01/24 05:12:02;;;;;;;;;;;;;;;;;;5041625;28;19913;-84
2023/01/24 05:14:48;;;;;;;;;;;;;;;;;;5025801;28;19924;-82
2023/01/24 05:17:35;;;;;;;;;;;;;;;;;;5035168;28;19917;-82
2023/01/24 05:20:23;;;;;;;;;;;;;;;;;;5020862;28;20388;-82
2023/01/24 05:23:10;;;;;;;;;;;;;;;;;;5020239;28;19917;-83
2023/01/24 05:25:56;;;;;;;;;;;;;;;;;;5018604;28;20292;-83
2023/01/24 05:28:43;;;;;;;;;;;;;;;;;;5043858;28;19927;-84
2023/01/24 05:31:29;;;;;;;;;;;;;;;;;;5023991;28;19914;-83
2023/01/24 05:34:16;;;;;;;;;;;;;;;;;;5018897;28;20361;-83
2023/01/24 05:37:02;;;;;;;;;;;;;;;;;;5016565;28;19921;-84
2023/01/24 05:39:48;;;;;;;;;;;;;;;;;;5019701;28;19918;-84
2023/01/24 05:42:35;;;;;;;;;;;;;;;;;;5024238;28;19924;-83
2023/01/24 05:45:21;;;;;;;;;;;;;;;;;;5022312;28;19943;-83
2023/01/24 05:48:09;;;;;;;;;;;;;;;;;;5014798;28;19932;-83
2023/01/24 05:50:56;;;;;;;;;;;;;;;;;;5023868;28;19925;-82
2023/01/24 05:53:42;;;;;;;;;;;;;;;;;;5014345;28;19944;-82
2023/01/24 05:56:29;;;;;;;;;;;;;;;;;;5017441;28;19919;-83
2023/01/24 05:59:15;;;;;;;;;;;;;;;;;;5024290;28;19913;-83
2023/01/24 06:02:02;;;;;;;;;;;;;;;;;;5020723;28;19928;-83
2023/01/24 06:04:48;;;;;;;;;;;;;;;;;;5015121;28;19924;-83
2023/01/24 06:07:35;;;;;;;;;;;;;;;;;;5022507;28;19917;-82
2023/01/24 06:10:21;;;;;;;;;;;;;;;;;;5029653;28;19932;-83
2023/01/24 06:13:08;;;;;;;;;;;;;;;;;;5022657;28;19948;-82
2023/01/24 06:15:54;;;;;;;;;;;;;;;;;;5030357;28;19920;-87
2023/01/24 06:18:50;;;;;;;;;;;;;;;;;;5006763;28;19916;-83
2023/01/24 06:21:39;;;;;;;;;;;;;;;;;;5028881;28;19921;-83
2023/01/24 06:24:26;;;;;;;;;;;;;;;;;;5031789;28;19913;-82
2023/01/24 06:27:12;;;;;;;;;;;;;;;;;;5028087;28;19917;-83
2023/01/24 06:29:59;;;;;;;;;;;;;;;;;;5021666;28;20274;-82
2023/01/24 06:32:45;;;;;;;;;;;;;;;;;;5023260;28;19928;-82
2023/01/24 06:35:32;;;;;;;;;;;;;;;;;;5026619;28;20153;-83
2023/01/24 06:38:19;;;;;;;;;;;;;;;;;;5015129;28;19919;-83
2023/01/24 06:41:05;;;;;;;;;;;;;;;;;;5031786;28;20309;-82
2023/01/24 06:43:52;;;;;;;;;;;;;;;;;;5027493;28;19917;-82
2023/01/24 06:46:38;;;;;;;;;;;;;;;;;;5029905;28;19915;-82
2023/01/24 06:49:25;;;;;;;;;;;;;;;;;;5010418;28;19921;-82
2023/01/24 06:52:14;;;;;;;;;;;;;;;;;;5020731;28;19924;-82
2023/01/24 06:55:00;;;;;;;;;;;;;;;;;;5019021;28;20028;-82
2023/01/24 06:57:47;;;;;;;;;;;;;;;;;;5043709;28;20376;-82
2023/01/24 07:00:34;;;;;;;;;;;;;;;;;;5040459;28;19913;-82
2023/01/24 07:03:20;;;;;;;;;;;;;;;;;;5020086;28;20347;-82
2023/01/24 07:06:07;;;;;;;;;;;;;;;;;;5027011;28;19921;-82
2023/01/24 07:08:53;;;;;;;;;;;;;;;;;;5027609;28;19928;-82
2023/01/24 07:11:40;;;;;;;;;;;;;;;;;;5030863;28;19951;-82
2023/01/24 07:14:26;;;;;;;;;;;;;;;;;;5028245;28;19924;-82
2023/01/24 07:17:12;;;;;;;;;;;;;;;;;;5033379;28;20372;-83
2023/01/24 07:19:59;;;;;;;;;;;;;;;;;;5029380;28;19923;-83
2023/01/24 07:22:45;;;;;;;;;;;;;;;;;;5039851;28;19913;-83
2023/01/24 07:25:32;;;;;;;;;;;;;;;;;;5021591;28;19924;-82
2023/01/24 07:28:18;;;;;;;;;;;;;;;;;;5036260;28;19913;-83
2023/01/24 07:31:05;;;;;;;;;;;;;;;;;;5040793;28;19923;-82
2023/01/24 07:33:51;;;;;;;;;;;;;;;;;;5018267;28;20083;-82
2023/01/24 07:36:38;;;;;;;;;;;;;;;;;;5018194;28;19913;-82
2023/01/24 07:39:24;;;;;;;;;;;;;;;;;;5023626;28;19944;-83
2023/01/24 07:42:11;;;;;;;;;;;;;;;;;;5024994;28;19920;-84
2023/01/24 07:44:58;;;;;;;;;;;;;;;;;;5018553;28;19936;-84
2023/01/24 07:47:44;;;;;;;;;;;;;;;;;;5020166;28;19913;-84
2023/01/24 07:50:31;;;;;;;;;;;;;;;;;;5015473;28;19955;-84
2023/01/24 07:53:17;;;;;;;;;;;;;;;;;;5023919;28;19929;-83
2023/01/24 07:56:04;;;;;;;;;;;;;;;;;;5032921;28;19944;-83
2023/01/24 07:58:50;;;;;;;;;;;;;;;;;;5023005;28;19923;-83
2023/01/24 08:01:37;;;;;;;;;;;;;;;;;;5021235;28;19921;-82
2023/01/24 08:04:23;;;;;;;;;;;;;;;;;;5029525;28;20395;-82
2023/01/24 08:07:20;;;;;;;;;;;;;;;;;;5018645;28;19921;-83
2023/01/24 08:10:06;;;;;;;;;;;;;;;;;;5019426;28;19989;-83
2023/01/24 08:12:52;;;;;;;;;;;;;;;;;;5018394;28;19909;-82
2023/01/24 08:15:39;;;;;;;;;;;;;;;;;;5024731;28;19920;-83
2023/01/24 08:18:25;;;;;;;;;;;;;;;;;;5018060;28;19921;-82
2023/01/24 08:21:12;;;;;;;;;;;;;;;;;;5019414;28;20293;-83
2023/01/24 08:23:58;;;;;;;;;;;;;;;;;;5022740;28;20385;-82
2023/01/24 08:26:48;;;;;;;;;;;;;;;;;;5021943;28;19918;-83
2023/01/24 08:29:35;;;;;;;;;;;;;;;;;;5023824;28;19944;-83
2023/01/24 08:32:21;;;;;;;;;;;;;;;;;;5036616;28;19909;-83
2023/01/24 08:35:08;;;;;;;;;;;;;;;;;;5026126;28;19913;-83
2023/01/24 08:37:54;;;;;;;;;;;;;;;;;;5026622;28;20340;-83
2023/01/24 08:40:41;;;;;;;;;;;;;;;;;;5018251;28;20120;-83
2023/01/24 08:43:27;;;;;;;;;;;;;;;;;;5030676;28;20638;-83
2023/01/24 08:46:14;;;;;;;;;;;;;;;;;;5030087;28;19913;-83
2023/01/24 08:49:00;;;;;;;;;;;;;;;;;;5017467;28;20300;-83
2023/01/24 08:51:47;;;;;;;;;;;;;;;;;;5020220;28;20341;-82
2023/01/24 08:54:35;;;;;;;;;;;;;;;;;;5019130;28;19921;-83
2023/01/24 08:57:22;;;;;;;;;;;;;;;;;;5036755;28;19925;-83
2023/01/24 09:00:08;;;;;;;;;;;;;;;;;;5029411;28;19920;-83
2023/01/24 09:02:58;;;;;;;;;;;;;;;;;;5014516;28;19925;-83
2023/01/24 09:05:45;;;;;;;;;;;;;;;;;;5016519;28;19913;-83
2023/01/24 09:08:31;;;;;;;;;;;;;;;;;;5019500;28;19949;-86
2023/01/24 09:11:18;;;;;;;;;;;;;;;;;;5019159;28;19925;-84
2023/01/24 09:14:04;;;;;;;;;;;;;;;;;;5027065;28;20698;-84
2023/01/24 09:16:51;;;;;;;;;;;;;;;;;;5027714;28;19913;-85
2023/01/24 09:19:37;;;;;;;;;;;;;;;;;;5024058;28;20396;-85
2023/01/24 09:22:24;;;;;;;;;;;;;;;;;;5019321;28;19914;-83
2023/01/24 09:25:10;;;;;;;;;;;;;;;;;;5012605;28;19917;-84
2023/01/24 09:27:57;;;;;;;;;;;;;;;;;;5027167;28;19919;-84
2023/01/24 09:30:43;;;;;;;;;;;;;;;;;;5041306;28;19925;-82
2023/01/24 09:33:30;;;;;;;;;;;;;;;;;;5026106;28;19947;-84
2023/01/24 09:36:16;;;;;;;;;;;;;;;;;;5029794;28;19917;-83
2023/01/24 09:39:03;;;;;;;;;;;;;;;;;;5037370;28;20282;-83
2023/01/24 09:41:50;;;;;;;;;;;;;;;;;;5012839;28;19928;-83
2023/01/24 09:44:36;;;;;;;;;;;;;;;;;;5031067;28;19917;-83
2023/01/24 09:47:23;;;;;;;;;;;;;;;;;;5030377;28;20383;-83
2023/01/24 09:50:09;;;;;;;;;;;;;;;;;;5024194;28;19928;-82
2023/01/24 09:52:56;;;;;;;;;;;;;;;;;;5021963;28;19940;-82
2023/01/24 09:55:42;;;;;;;;;;;;;;;;;;5021484;28;19917;-82
2023/01/24 09:58:30;;;;;;;;;;;;;;;;;;5016937;28;19932;-82
2023/01/24 10:01:17;;;;;;;;;;;;;;;;;;5026855;28;19936;-82
2023/01/24 10:04:03;;;;;;;;;;;;;;;;;;5021979;28;19913;-82
2023/01/24 10:06:49;;;;;;;;;;;;;;;;;;5032129;28;19917;-82
2023/01/24 10:09:36;;;;;;;;;;;;;;;;;;5019405;28;19921;-82
2023/01/24 10:12:24;;;;;;;;;;;;;;;;;;5020419;28;19918;-82
2023/01/24 10:15:11;;;;;;;;;;;;;;;;;;5025839;28;19940;-82
2023/01/24 10:18:05;;;;;;;;;;;;;;;;;;5025062;28;19919;-83
2023/01/24 10:20:52;;;;;;;;;;;;;;;;;;5016048;28;19943;-83
2023/01/24 10:23:38;;;;;;;;;;;;;;;;;;5024949;28;19917;-83
2023/01/24 10:26:25;;;;;;;;;;;;;;;;;;5037198;28;19920;-84
2023/01/24 10:29:11;;;;;;;;;;;;;;;;;;5030099;28;20345;-83
2023/01/24 10:31:58;;;;;;;;;;;;;;;;;;5030969;28;20405;-83
2023/01/24 10:34:47;;;;;;;;;;;;;;;;;;5021382;28;19917;-83
2023/01/24 10:37:33;;;;;;;;;;;;;;;;;;5020877;28;19928;-83
2023/01/24 10:40:20;;;;;;;;;;;;;;;;;;5032715;28;19917;-83
2023/01/24 10:43:06;;;;;;;;;;;;;;;;;;5024861;28;20235;-83
2023/01/24 10:45:53;;;;;;;;;;;;;;;;;;5027876;28;19917;-83
2023/01/24 10:48:40;;;;;;;;;;;;;;;;;;5033085;28;20280;-83
2023/01/24 10:51:27;;;;;;;;;;;;;;;;;;5033869;28;20363;-83
2023/01/24 10:54:13;;;;;;;;;;;;;;;;;;5034953;28;20308;-83
2023/01/24 10:57:00;;;;;;;;;;;;;;;;;;5037117;28;19923;-83
2023/01/24 10:59:47;;;;;;;;;;;;;;;;;;5031771;28;19923;-83
2023/01/24 11:02:34;;;;;;;;;;;;;;;;;;5027059;28;19923;-83
2023/01/24 11:05:20;;;;;;;;;;;;;;;;;;5019990;28;19917;-83
2023/01/24 11:08:07;;;;;;;;;;;;;;;;;;5024012;28;19914;-83
2023/01/24 11:10:53;;;;;;;;;;;;;;;;;;5033536;28;19936;-82
2023/01/24 11:13:40;;;;;;;;;;;;;;;;;;5025555;28;19913;-83
2023/01/24 11:16:26;;;;;;;;;;;;;;;;;;5034480;28;19920;-83
2023/01/24 11:19:13;;;;;;;;;;;;;;;;;;5025775;28;19909;-83
2023/01/24 11:21:59;;;;;;;;;;;;;;;;;;5021895;28;19916;-83
2023/01/24 11:24:46;;;;;;;;;;;;;;;;;;5018828;28;19924;-83
2023/01/24 11:27:32;;;;;;;;;;;;;;;;;;5018144;28;20478;-83
2023/01/24 11:30:19;;;;;;;;;;;;;;;;;;5005690;28;19921;-83
2023/01/24 11:33:18;;;;;;;;;;;;;;;;;;5086155;27;1961668;-85
2023/01/24 11:36:08;;;;;;;;;;;;;;;;;;5145434;27;19911;-83
2023/01/24 11:38:54;;;;;;;;;;;;;;;;;;5141176;27;19931;-83
2023/01/24 11:41:41;;;;;;;;;;;;;;;;;;5132481;27;19924;-84
2023/01/24 11:44:27;;;;;;;;;;;;;;;;;;5136986;27;19916;-83
2023/01/24 11:47:14;;;;;;;;;;;;;;;;;;5129938;27;19908;-85
2023/01/24 11:50:00;;;;;;;;;;;;;;;;;;5139573;27;19915;-84
2023/01/24 11:52:47;;;;;;;;;;;;;;;;;;5123293;27;19930;-85
2023/01/24 11:55:33;;;;;;;;;;;;;;;;;;5124245;27;19922;-83
2023/01/24 11:58:19;;;;;;;;;;;;;;;;;;5124733;27;19911;-83
2023/01/24 12:01:06;;;;;;;;;;;;;;;;;;5114588;27;19927;-84
2023/01/24 12:03:52;;;;;;;;;;;;;;;;;;5115471;27;19916;-85
2023/01/24 12:06:39;;;;;;;;;;;;;;;;;;5117821;27;19919;-84
2023/01/24 12:09:25;;;;;;;;;;;;;;;;;;5121385;27;19916;-84
2023/01/24 12:12:12;;;;;;;;;;;;;;;;;;5120470;27;19926;-84
2023/01/24 12:14:58;;;;;;;;;;;;;;;;;;5112791;27;20438;-84
2023/01/24 12:17:45;;;;;;;;;;;;;;;;;;5108758;27;19912;-85
2023/01/24 12:20:31;;;;;;;;;;;;;;;;;;5115512;27;19912;-84
2023/01/24 12:23:18;;;;;;;;;;;;;;;;;;5113364;28;19916;-84
2023/01/24 12:26:04;;;;;;;;;;;;;;;;;;5120484;28;19912;-84
2023/01/24 12:28:51;;;;;;;;;;;;;;;;;;5116481;27;19916;-84
2023/01/24 12:31:37;;;;;;;;;;;;;;;;;;5114179;27;19924;-84
2023/01/24 12:34:24;;;;;;;;;;;;;;;;;;5117157;27;19918;-84
2023/01/24 12:37:10;;;;;;;;;;;;;;;;;;5116455;27;20028;-84
2023/01/24 12:39:56;;;;;;;;;;;;;;;;;;5119394;27;19915;-84
2023/01/24 12:42:43;;;;;;;;;;;;;;;;;;5121490;28;19920;-84
2023/01/24 12:45:29;;;;;;;;;;;;;;;;;;5107615;28;19918;-84
2023/01/24 12:48:16;;;;;;;;;;;;;;;;;;5075603;28;20392;-84
2023/01/24 12:51:02;;;;;;;;;;;;;;;;;;5103096;28;19926;-84
2023/01/24 12:53:49;;;;;;;;;;;;;;;;;;5101994;28;19918;-84
2023/01/24 12:56:35;;;;;;;;;;;;;;;;;;5105260;28;19915;-85
2023/01/24 12:59:22;;;;;;;;;;;;;;;;;;5107648;28;19918;-85
2023/01/24 13:02:08;;;;;;;;;;;;;;;;;;5104397;28;20029;-85
2023/01/24 13:04:57;;;;;;;;;;;;;;;;;;5104542;28;19913;-85
2023/01/24 13:07:44;;;;;;;;;;;;;;;;;;5100336;28;19919;-85
2023/01/24 13:10:30;;;;;;;;;;;;;;;;;;5105526;28;20623;-85
2023/01/24 13:13:19;;;;;;;;;;;;;;;;;;5109046;27;19923;-85
2023/01/24 13:16:06;;;;;;;;;;;;;;;;;;5105392;27;19918;-85
2023/01/24 13:18:52;;;;;;;;;;;;;;;;;;5100546;28;20091;-84
2023/01/24 13:21:39;;;;;;;;;;;;;;;;;;5107547;28;19916;-83
2023/01/24 13:24:26;;;;;;;;;;;;;;;;;;5101022;28;20389;-84
2023/01/24 13:27:12;;;;;;;;;;;;;;;;;;5107090;28;19923;-84
2023/01/24 13:29:59;;;;;;;;;;;;;;;;;;5102531;28;19916;-84
2023/01/24 13:32:45;;;;;;;;;;;;;;;;;;5104765;27;20349;-84
2023/01/24 13:35:32;;;;;;;;;;;;;;;;;;5109849;28;19907;-84
2023/01/24 13:38:18;;;;;;;;;;;;;;;;;;5102410;28;19918;-84
2023/01/24 13:41:08;;;;;;;;;;;;;;;;;;5104179;28;20366;-84
2023/01/24 13:43:56;;;;;;;;;;;;;;;;;;5095359;28;19982;-84
2023/01/24 13:46:45;;;;;;;;;;;;;;;;;;5102829;28;19923;-84
2023/01/24 13:49:32;;;;;;;;;;;;;;;;;;5107355;28;19977;-84
2023/01/24 13:52:18;;;;;;;;;;;;;;;;;;5093034;28;19946;-84
2023/01/24 13:55:05;;;;;;;;;;;;;;;;;;5100126;28;19920;-84
2023/01/24 13:57:51;;;;;;;;;;;;;;;;;;5090689;28;19915;-84
2023/01/24 14:00:38;;;;;;;;;;;;;;;;;;5104682;28;19916;-84
2023/01/24 14:03:26;;;;;;;;;;;;;;;;;;5104013;28;20280;-84
2023/01/24 14:06:12;;;;;;;;;;;;;;;;;;5092969;28;19938;-84
2023/01/24 14:08:59;;;;;;;;;;;;;;;;;;5105947;28;19915;-84
2023/01/24 14:11:45;;;;;;;;;;;;;;;;;;5107381;28;20379;-84
2023/01/24 14:14:32;;;;;;;;;;;;;;;;;;5107038;28;19912;-84
2023/01/24 14:17:18;;;;;;;;;;;;;;;;;;5108077;28;19999;-84
2023/01/24 14:20:05;;;;;;;;;;;;;;;;;;5100248;28;19911;-84
2023/01/24 14:22:51;;;;;;;;;;;;;;;;;;5106627;28;19923;-84
2023/01/24 14:25:38;;;;;;;;;;;;;;;;;;5105295;28;19915;-84
2023/01/24 14:28:25;;;;;;;;;;;;;;;;;;5101384;27;19918;-83
2023/01/24 14:31:12;;;;;;;;;;;;;;;;;;5099725;28;19912;-84
2023/01/24 14:33:58;;;;;;;;;;;;;;;;;;5098456;28;19926;-83
2023/01/24 14:36:45;;;;;;;;;;;;;;;;;;5103753;28;19923;-83
2023/01/24 14:39:31;;;;;;;;;;;;;;;;;;5097536;28;19923;-84
2023/01/24 14:42:18;;;;;;;;;;;;;;;;;;5093140;28;20267;-84
2023/01/24 14:45:05;;;;;;;;;;;;;;;;;;5096665;28;19927;-84
2023/01/24 14:47:51;;;;;;;;;;;;;;;;;;5092805;28;19915;-85
2023/01/24 14:50:38;;;;;;;;;;;;;;;;;;5095444;27;19919;-85
2023/01/24 14:53:24;;;;;;;;;;;;;;;;;;5096431;28;19928;-84
2023/01/24 14:56:12;;;;;;;;;;;;;;;;;;5084862;28;20029;-85
2023/01/24 14:58:59;;;;;;;;;;;;;;;;;;5092696;28;19911;-84
2023/01/24 15:01:46;;;;;;;;;;;;;;;;;;5098137;28;19916;-84
2023/01/24 15:04:32;;;;;;;;;;;;;;;;;;5097330;28;19923;-86
2023/01/24 15:07:18;;;;;;;;;;;;;;;;;;5087621;28;20287;-85
2023/01/24 15:10:05;;;;;;;;;;;;;;;;;;5097424;28;19912;-84
2023/01/24 15:12:51;;;;;;;;;;;;;;;;;;5085937;28;19928;-85
2023/01/24 15:15:38;;;;;;;;;;;;;;;;;;5090735;28;20368;-85
2023/01/24 15:18:24;;;;;;;;;;;;;;;;;;5096400;28;19912;-83
2023/01/24 15:21:11;;;;;;;;;;;;;;;;;;5093649;28;20354;-84
2023/01/24 15:23:57;;;;;;;;;;;;;;;;;;5094431;28;19911;-84
2023/01/24 15:26:46;;;;;;;;;;;;;;;;;;5094813;28;19912;-84
2023/01/24 15:29:33;;;;;;;;;;;;;;;;;;5090768;28;19919;-85
2023/01/24 15:32:19;;;;;;;;;;;;;;;;;;5093108;28;19930;-86
2023/01/24 15:35:06;;;;;;;;;;;;;;;;;;5101222;28;20389;-85
2023/01/24 15:37:52;;;;;;;;;;;;;;;;;;5094034;28;19922;-83
2023/01/24 15:40:39;;;;;;;;;;;;;;;;;;5100014;28;19912;-85
2023/01/24 15:44:08;;;;;;;;;;;;;;;;;;5089350;28;20661;-84
2023/01/24 15:49:41;;;;;;;;;;;;;;;;;;5076281;28;19923;-81
2023/01/24 15:52:27;;;;;;;;;;;;;;;;;;5074402;28;19927;-82
2023/01/24 15:55:14;;;;;;;;;;;;;;;;;;5087382;28;19923;-82
2023/01/24 15:58:00;;;;;;;;;;;;;;;;;;5097050;28;19917;-82
2023/01/24 16:00:47;;;;;;;;;;;;;;;;;;5096984;28;20394;-84
2023/01/24 16:03:33;;;;;;;;;;;;;;;;;;5092961;28;20448;-83
2023/01/24 16:06:20;;;;;;;;;;;;;;;;;;5096912;28;19923;-84
2023/01/24 16:09:08;;;;;;;;;;;;;;;;;;5101390;28;19912;-84
2023/01/24 16:11:55;;;;;;;;;;;;;;;;;;5096627;28;19915;-82
2023/01/24 16:14:41;;;;;;;;;;;;;;;;;;5089737;28;19911;-85
2023/01/24 16:17:28;;;;;;;;;;;;;;;;;;5103184;28;19911;-83
2023/01/24 16:20:14;;;;;;;;;;;;;;;;;;5110587;28;19915;-84
2023/01/24 16:23:01;;;;;;;;;;;;;;;;;;5107824;28;19919;-84
2023/01/24 16:25:47;;;;;;;;;;;;;;;;;;5108698;28;19973;-84
2023/01/24 16:28:34;;;;;;;;;;;;;;;;;;5093805;28;19916;-84
2023/01/24 16:31:20;;;;;;;;;;;;;;;;;;5107589;28;19927;-84
2023/01/24 16:34:07;;;;;;;;;;;;;;;;;;5107620;27;20375;-84
2023/01/24 16:36:53;;;;;;;;;;;;;;;;;;5105442;28;19935;-85
2023/01/24 16:39:40;;;;;;;;;;;;;;;;;;5100983;28;19922;-83
2023/01/24 16:42:27;;;;;;;;;;;;;;;;;;5094400;27;20253;-84
2023/01/24 16:45:13;;;;;;;;;;;;;;;;;;5086953;28;19927;-84
2023/01/24 16:48:00;;;;;;;;;;;;;;;;;;5097155;28;20381;-84
2023/01/24 16:50:46;;;;;;;;;;;;;;;;;;5098612;28;19916;-84
2023/01/24 16:53:33;;;;;;;;;;;;;;;;;;5093994;28;19931;-85
2023/01/24 16:56:22;;;;;;;;;;;;;;;;;;5095651;28;20060;-84
2023/01/24 16:59:09;;;;;;;;;;;;;;;;;;5093943;28;20382;-84
2023/01/24 17:01:56;;;;;;;;;;;;;;;;;;5097837;28;19912;-84
2023/01/24 17:04:45;;;;;;;;;;;;;;;;;;5092342;28;20367;-83
2023/01/24 17:07:32;;;;;;;;;;;;;;;;;;5097678;28;19915;-83
2023/01/24 17:10:18;;;;;;;;;;;;;;;;;;5094616;28;19920;-83
2023/01/24 17:13:06;;;;;;;;;;;;;;;;;;5097048;28;19928;-83
2023/01/24 17:15:55;;;;;;;;;;;;;;;;;;5099204;28;19927;-82
2023/01/24 17:18:42;;;;;;;;;;;;;;;;;;5090923;28;19923;-83
2023/01/24 17:21:28;;;;;;;;;;;;;;;;;;5097837;28;19918;-84
2023/01/24 17:24:15;;;;;;;;;;;;;;;;;;5099771;28;19916;-84
2023/01/24 17:27:01;;;;;;;;;;;;;;;;;;5095946;28;19923;-84
2023/01/24 17:29:49;;;;;;;;;;;;;;;;;;5096548;28;19915;-84
2023/01/24 17:32:38;;;;;;;;;;;;;;;;;;5096147;28;19931;-85
2023/01/24 17:35:24;;;;;;;;;;;;;;;;;;5095738;28;19916;-83
2023/01/24 17:38:11;;;;;;;;;;;;;;;;;;5097630;28;20234;-82
2023/01/24 17:40:58;;;;;;;;;;;;;;;;;;5098977;28;20392;-83
2023/01/24 17:43:44;;;;;;;;;;;;;;;;;;5097506;28;19911;-84
2023/01/24 17:46:31;;;;;;;;;;;;;;;;;;5097747;27;19923;-84
2023/01/24 17:49:17;;;;;;;;;;;;;;;;;;5091769;28;19923;-83
2023/01/24 17:52:04;;;;;;;;;;;;;;;;;;5104632;28;19938;-83
2023/01/24 17:54:50;;;;;;;;;;;;;;;;;;5101977;28;19930;-84
2023/01/24 17:57:37;;;;;;;;;;;;;;;;;;5096383;28;19916;-82
2023/01/24 18:00:23;;;;;;;;;;;;;;;;;;5095057;28;19919;-84
2023/01/24 18:03:10;;;;;;;;;;;;;;;;;;5093896;28;19916;-84
2023/01/24 18:05:57;;;;;;;;;;;;;;;;;;5102349;28;19935;-85
2023/01/24 18:08:46;;;;;;;;;;;;;;;;;;5096556;28;19916;-85
2023/01/24 18:11:32;;;;;;;;;;;;;;;;;;5096195;28;19915;-83
2023/01/24 18:14:19;;;;;;;;;;;;;;;;;;5096112;28;19916;-85
2023/01/24 18:17:05;;;;;;;;;;;;;;;;;;5097042;28;19918;-84
2023/01/24 18:19:52;;;;;;;;;;;;;;;;;;5093187;28;19922;-85
2023/01/24 18:22:38;;;;;;;;;;;;;;;;;;5096671;28;19912;-84
2023/01/24 18:25:24;;;;;;;;;;;;;;;;;;5089849;28;19923;-84
2023/01/24 18:28:11;;;;;;;;;;;;;;;;;;5100886;28;19930;-84
2023/01/24 18:30:57;;;;;;;;;;;;;;;;;;5096811;27;19915;-84
2023/01/24 18:33:44;;;;;;;;;;;;;;;;;;5084717;28;19924;-83
2023/01/24 18:36:31;;;;;;;;;;;;;;;;;;5092112;28;19908;-83
2023/01/24 18:39:17;;;;;;;;;;;;;;;;;;5101520;28;19931;-83
2023/01/24 18:42:05;;;;;;;;;;;;;;;;;;5096134;28;19916;-83
2023/01/24 18:44:52;;;;;;;;;;;;;;;;;;5080055;28;19912;-83
2023/01/24 18:47:38;;;;;;;;;;;;;;;;;;5097891;28;19916;-84
2023/01/24 18:50:25;;;;;;;;;;;;;;;;;;5081593;28;20390;-84
2023/01/24 18:53:11;;;;;;;;;;;;;;;;;;5096294;28;19931;-83
2023/01/24 18:55:58;;;;;;;;;;;;;;;;;;5100790;28;19918;-84
2023/01/24 18:58:46;;;;;;;;;;;;;;;;;;5095368;28;19920;-85
2023/01/24 19:01:32;;;;;;;;;;;;;;;;;;5091489;28;19923;-83
2023/01/24 19:04:19;;;;;;;;;;;;;;;;;;5094185;28;19916;-84
2023/01/24 19:07:05;;;;;;;;;;;;;;;;;;5079638;28;20006;-84
2023/01/24 19:09:58;;;;;;;;;;;;;;;;;;5096423;28;19916;-84
2023/01/24 19:12:44;;;;;;;;;;;;;;;;;;5095899;28;19920;-83
2023/01/24 19:15:31;;;;;;;;;;;;;;;;;;5085979;28;20264;-84
2023/01/24 19:18:19;;;;;;;;;;;;;;;;;;5085638;28;19916;-83
2023/01/24 19:21:05;;;;;;;;;;;;;;;;;;5092496;28;19923;-83
2023/01/24 19:23:52;;;;;;;;;;;;;;;;;;5092062;28;19963;-83
2023/01/24 19:26:38;;;;;;;;;;;;;;;;;;5104489;28;19957;-83
2023/01/24 19:29:26;;;;;;;;;;;;;;;;;;5105142;28;19923;-82
2023/01/24 19:32:12;;;;;;;;;;;;;;;;;;5085737;28;19928;-83
2023/01/24 19:34:59;;;;;;;;;;;;;;;;;;5104633;28;19911;-83
2023/01/24 19:37:45;;;;;;;;;;;;;;;;;;5083539;28;19927;-83